Time;durP1;ratioP1;P1;durP2;ratioP2;P2;SDS_P1;SDS_P2;PMS_P1;PMS_P2;Temp;Humidity;BMP_temperature;BMP_pressure;BME280_temperature;BME280_humidity;BME280_pressure;Samples;Min_cycle;Max_cycle;Signal;HPM_P1;HPM_P2
2023/03/03 00:01:29;;;;;;;30.90;18.00;;;;;;;;;;5080138;28;20553;-62
2023/03/03 00:03:57;;;;;;;30.30;17.17;;;;;;;;;;5080143;28;20687;-62
2023/03/03 00:06:25;;;;;;;32.90;18.20;;;;;;;;;;5080015;28;20202;-63
2023/03/03 00:08:53;;;;;;;71.20;35.80;;;;;;;;;;5079934;28;20224;-61
2023/03/03 00:11:21;;;;;;;56.30;29.20;;;;;;;;;;5079650;28;20218;-62
2023/03/03 00:13:53;;;;;;;53.27;28.23;;;;;;;;;;5079926;28;20297;-62
2023/03/03 00:16:24;;;;;;;33.50;19.73;;;;;;;;;;5079942;28;20240;-61
2023/03/03 00:18:53;;;;;;;31.87;18.13;;;;;;;;;;5079735;28;20639;-61
2023/03/03 00:21:29;;;;;;;31.57;16.27;;;;;;;;;;5079829;28;20229;-61
2023/03/03 00:24:15;;;;;;;30.97;17.73;;;;;;;;;;5080012;28;20285;-61
2023/03/03 00:26:45;;;;;;;31.80;18.27;;;;;;;;;;5079516;28;20577;-61
2023/03/03 00:29:26;;;;;;;32.70;18.67;;;;;;;;;;5079613;28;20255;-61
2023/03/03 00:32:00;;;;;;;33.57;18.27;;;;;;;;;;5079612;28;20628;-62
2023/03/03 00:34:29;;;;;;;29.70;17.23;;;;;;;;;;5078997;28;20206;-61
2023/03/03 00:36:57;;;;;;;29.80;17.77;;;;;;;;;;5079636;28;20206;-61
2023/03/03 00:39:29;;;;;;;32.27;18.33;;;;;;;;;;5079167;28;20573;-61
2023/03/03 00:41:58;;;;;;;29.60;18.23;;;;;;;;;;5079268;28;20546;-62
2023/03/03 00:44:43;;;;;;;31.40;18.00;;;;;;;;;;5079563;28;20214;-62
2023/03/03 00:47:24;;;;;;;29.73;17.70;;;;;;;;;;5079214;28;20264;-62
2023/03/03 00:49:52;;;;;;;31.00;17.93;;;;;;;;;;5068942;28;20277;-62
2023/03/03 00:52:20;;;;;;;33.13;19.07;;;;;;;;;;5079472;28;20291;-61
2023/03/03 00:54:48;;;;;;;32.20;18.27;;;;;;;;;;5079470;28;20256;-61
2023/03/03 00:57:16;;;;;;;31.50;18.00;;;;;;;;;;5078911;28;20297;-61
2023/03/03 00:59:44;;;;;;;30.17;18.83;;;;;;;;;;5079056;28;20233;-62
2023/03/03 01:02:14;;;;;;;36.90;19.33;;;;;;;;;;5070081;28;20235;-61
2023/03/03 01:04:44;;;;;;;32.77;17.30;;;;;;;;;;5074197;28;20209;-61
2023/03/03 01:07:12;;;;;;;34.03;19.70;;;;;;;;;;5078849;28;20597;-62
2023/03/03 01:09:40;;;;;;;37.20;19.33;;;;;;;;;;5078749;28;20254;-61
2023/03/03 01:12:08;;;;;;;32.17;18.80;;;;;;;;;;5078886;28;20238;-61
2023/03/03 01:14:36;;;;;;;34.60;18.90;;;;;;;;;;5078984;28;20206;-61
2023/03/03 01:17:04;;;;;;;32.77;19.00;;;;;;;;;;5078879;28;20217;-61
2023/03/03 01:19:33;;;;;;;28.97;17.90;;;;;;;;;;5078478;28;20262;-61
2023/03/03 01:22:01;;;;;;;32.03;18.83;;;;;;;;;;5079018;28;20206;-61
2023/03/03 01:24:29;;;;;;;30.10;18.00;;;;;;;;;;5078776;28;20206;-62
2023/03/03 01:26:57;;;;;;;31.27;19.13;;;;;;;;;;5078386;28;20216;-62
2023/03/03 01:29:25;;;;;;;32.70;18.50;;;;;;;;;;5078743;28;20225;-61
2023/03/03 01:31:53;;;;;;;32.83;18.40;;;;;;;;;;5078554;28;20209;-61
2023/03/03 01:34:21;;;;;;;31.87;17.47;;;;;;;;;;5078548;28;20206;-61
2023/03/03 01:36:51;;;;;;;33.80;17.90;;;;;;;;;;5078314;28;20699;-61
2023/03/03 01:39:19;;;;;;;28.33;17.00;;;;;;;;;;5077948;28;20654;-62
2023/03/03 01:41:47;;;;;;;26.73;16.27;;;;;;;;;;5078039;28;20289;-61
2023/03/03 01:44:15;;;;;;;33.63;19.17;;;;;;;;;;5078139;28;20262;-61
2023/03/03 01:46:54;;;;;;;30.00;17.33;;;;;;;;;;5077507;28;20206;-61
2023/03/03 01:49:24;;;;;;;31.13;17.60;;;;;;;;;;5077885;28;20229;-61
2023/03/03 01:51:54;;;;;;;31.10;17.40;;;;;;;;;;5075438;28;20241;-62
2023/03/03 01:54:25;;;;;;;32.13;18.90;;;;;;;;;;5078182;28;20208;-61
2023/03/03 01:56:56;;;;;;;29.50;17.73;;;;;;;;;;5077621;28;20206;-62
2023/03/03 01:59:27;;;;;;;27.83;16.43;;;;;;;;;;5077676;28;20683;-62
2023/03/03 02:01:54;;;;;;;32.67;18.00;;;;;;;;;;5077951;28;20202;-61
2023/03/03 02:04:23;;;;;;;32.40;17.13;;;;;;;;;;5077802;28;20206;-61
2023/03/03 02:06:52;;;;;;;31.57;17.67;;;;;;;;;;5077646;28;20252;-62
2023/03/03 02:09:26;;;;;;;32.90;17.23;;;;;;;;;;5077600;28;20214;-62
2023/03/03 02:11:57;;;;;;;33.13;17.63;;;;;;;;;;5077680;28;20205;-62
2023/03/03 02:14:25;;;;;;;25.90;16.50;;;;;;;;;;5077749;28;20578;-62
2023/03/03 02:16:53;;;;;;;32.07;17.53;;;;;;;;;;5077600;28;20209;-62
2023/03/03 02:19:23;;;;;;;28.03;16.73;;;;;;;;;;5077657;28;20261;-62
2023/03/03 02:21:52;;;;;;;30.10;17.93;;;;;;;;;;5077801;28;20660;-62
2023/03/03 02:24:23;;;;;;;29.03;16.00;;;;;;;;;;5077677;28;20661;-61
2023/03/03 02:26:53;;;;;;;30.90;17.37;;;;;;;;;;5077697;28;20216;-61
2023/03/03 02:29:20;;;;;;;30.63;17.90;;;;;;;;;;5077763;28;20221;-61
2023/03/03 02:31:48;;;;;;;28.40;17.33;;;;;;;;;;5078056;28;20293;-62
2023/03/03 02:34:16;;;;;;;31.77;17.60;;;;;;;;;;5077536;28;20247;-62
2023/03/03 02:36:44;;;;;;;30.30;17.70;;;;;;;;;;5077591;28;20288;-62
2023/03/03 02:39:16;;;;;;;29.53;16.30;;;;;;;;;;5077277;28;20910;-61
2023/03/03 02:41:46;;;;;;;30.77;16.80;;;;;;;;;;5077319;28;20230;-62
2023/03/03 02:44:16;;;;;;;29.83;17.33;;;;;;;;;;5077960;28;20205;-62
2023/03/03 02:46:45;;;;;;;29.70;16.20;;;;;;;;;;5077904;28;20212;-62
2023/03/03 02:49:14;;;;;;;31.43;17.07;;;;;;;;;;5077493;28;20234;-62
2023/03/03 02:51:42;;;;;;;29.33;17.07;;;;;;;;;;5077623;28;20213;-62
2023/03/03 02:54:11;;;;;;;30.27;16.97;;;;;;;;;;5077398;28;20214;-62
2023/03/03 02:56:39;;;;;;;28.50;17.00;;;;;;;;;;5077520;28;20206;-62
2023/03/03 02:59:07;;;;;;;31.67;17.63;;;;;;;;;;5067202;28;20217;-62
2023/03/03 03:01:37;;;;;;;28.67;16.93;;;;;;;;;;5081452;28;20206;-62
2023/03/03 03:04:06;;;;;;;27.00;16.40;;;;;;;;;;5070700;28;20206;-62
2023/03/03 03:06:36;;;;;;;29.67;16.60;;;;;;;;;;5081153;28;20653;-62
2023/03/03 03:09:04;;;;;;;27.60;16.30;;;;;;;;;;5081035;28;20237;-61
2023/03/03 03:11:34;;;;;;;29.97;16.97;;;;;;;;;;5080991;28;20203;-61
2023/03/03 03:14:01;;;;;;;28.37;17.47;;;;;;;;;;5081291;28;20238;-62
2023/03/03 03:16:30;;;;;;;26.83;15.73;;;;;;;;;;5081260;28;20238;-61
2023/03/03 03:19:00;;;;;;;30.33;16.83;;;;;;;;;;5081063;28;20221;-61
2023/03/03 03:21:28;;;;;;;29.50;16.53;;;;;;;;;;5080865;28;20719;-62
2023/03/03 03:23:56;;;;;;;31.27;16.90;;;;;;;;;;5080890;28;20932;-61
2023/03/03 03:26:24;;;;;;;27.67;17.13;;;;;;;;;;5080661;28;20202;-62
2023/03/03 03:28:52;;;;;;;30.83;17.37;;;;;;;;;;5081050;28;20206;-62
2023/03/03 03:31:21;;;;;;;32.53;17.13;;;;;;;;;;5080606;28;20607;-62
2023/03/03 03:33:50;;;;;;;26.57;16.33;;;;;;;;;;5081100;28;20294;-62
2023/03/03 03:36:23;;;;;;;32.13;17.43;;;;;;;;;;5080924;28;20244;-62
2023/03/03 03:38:51;;;;;;;26.50;16.73;;;;;;;;;;5080949;28;20206;-62
2023/03/03 03:41:19;;;;;;;28.67;17.27;;;;;;;;;;5076237;28;20230;-62
2023/03/03 03:43:47;;;;;;;34.20;18.97;;;;;;;;;;5080806;28;20285;-62
2023/03/03 03:46:15;;;;;;;30.30;16.90;;;;;;;;;;5080324;28;20704;-62
2023/03/03 03:48:43;;;;;;;29.03;15.67;;;;;;;;;;5080461;28;20618;-62
2023/03/03 03:51:11;;;;;;;27.00;16.40;;;;;;;;;;5080574;28;20229;-62
2023/03/03 03:53:40;;;;;;;26.93;16.30;;;;;;;;;;5080504;28;20285;-61
2023/03/03 03:56:08;;;;;;;28.27;16.43;;;;;;;;;;5080033;28;20206;-61
2023/03/03 03:58:36;;;;;;;28.53;15.50;;;;;;;;;;5080330;28;20241;-61
2023/03/03 04:01:04;;;;;;;26.07;16.47;;;;;;;;;;5079908;28;20237;-62
2023/03/03 04:03:32;;;;;;;26.90;15.93;;;;;;;;;;5080158;28;20692;-62
2023/03/03 04:06:00;;;;;;;25.33;15.20;;;;;;;;;;5080227;28;20478;-62
2023/03/03 04:08:28;;;;;;;30.77;16.90;;;;;;;;;;5080090;28;20483;-61
2023/03/03 04:10:58;;;;;;;27.13;15.93;;;;;;;;;;5078828;28;20543;-62
2023/03/03 04:13:27;;;;;;;32.87;17.30;;;;;;;;;;5079977;28;20448;-61
2023/03/03 04:15:55;;;;;;;30.03;16.97;;;;;;;;;;5080194;28;20445;-62
2023/03/03 04:18:23;;;;;;;31.67;17.83;;;;;;;;;;5079825;28;20444;-62
2023/03/03 04:20:51;;;;;;;30.43;17.03;;;;;;;;;;5079749;28;20915;-61
2023/03/03 04:23:21;;;;;;;31.33;16.80;;;;;;;;;;5080140;28;20479;-61
2023/03/03 04:25:49;;;;;;;30.93;17.67;;;;;;;;;;5065359;28;20506;-60
2023/03/03 04:28:19;;;;;;;31.20;17.33;;;;;;;;;;5079486;28;20483;-60
2023/03/03 04:30:47;;;;;;;33.70;17.53;;;;;;;;;;5079394;28;20976;-60
2023/03/03 04:33:15;;;;;;;30.30;17.37;;;;;;;;;;5079653;28;20444;-60
2023/03/03 04:35:42;;;;;;;36.53;17.73;;;;;;;;;;5079621;28;20452;-61
2023/03/03 04:38:11;;;;;;;30.40;16.40;;;;;;;;;;5079918;28;20444;-61
2023/03/03 04:40:40;;;;;;;30.00;16.47;;;;;;;;;;5079251;28;20487;-61
2023/03/03 04:43:08;;;;;;;32.17;17.40;;;;;;;;;;5079220;28;20448;-61
2023/03/03 04:45:37;;;;;;;30.47;17.77;;;;;;;;;;5079583;28;20445;-60
2023/03/03 04:48:06;;;;;;;30.80;17.33;;;;;;;;;;5079614;28;20472;-60
2023/03/03 04:50:34;;;;;;;30.63;17.40;;;;;;;;;;5085841;28;20455;-62
2023/03/03 04:53:02;;;;;;;32.43;17.90;;;;;;;;;;5099595;28;20462;-61
2023/03/03 04:55:30;;;;;;;28.13;16.60;;;;;;;;;;5098560;28;20444;-62
2023/03/03 04:57:58;;;;;;;32.67;17.07;;;;;;;;;;5097101;28;21144;-61
2023/03/03 05:00:26;;;;;;;28.70;16.83;;;;;;;;;;5097368;28;20560;-61
2023/03/03 05:02:55;;;;;;;31.50;18.10;;;;;;;;;;5097581;28;20498;-61
2023/03/03 05:05:25;;;;;;;32.37;17.77;;;;;;;;;;5077954;28;20446;-61
2023/03/03 05:07:56;;;;;;;34.83;17.93;;;;;;;;;;5076919;28;20825;-61
2023/03/03 05:10:24;;;;;;;31.83;18.53;;;;;;;;;;5077568;28;20518;-61
2023/03/03 05:12:52;;;;;;;31.23;17.23;;;;;;;;;;5078220;28;20451;-61
2023/03/03 05:15:20;;;;;;;31.90;16.77;;;;;;;;;;5079620;28;20206;-61
2023/03/03 05:17:48;;;;;;;31.17;16.63;;;;;;;;;;5078208;28;20567;-61
2023/03/03 05:20:18;;;;;;;30.63;18.10;;;;;;;;;;5078777;28;20226;-61
2023/03/03 05:22:46;;;;;;;30.93;17.17;;;;;;;;;;5078492;28;20322;-60
2023/03/03 05:25:14;;;;;;;39.43;18.33;;;;;;;;;;5078747;28;20704;-61
2023/03/03 05:27:42;;;;;;;32.40;17.37;;;;;;;;;;5078553;28;20480;-61
2023/03/03 05:30:11;;;;;;;29.43;16.83;;;;;;;;;;5078705;28;20540;-61
2023/03/03 05:32:39;;;;;;;36.73;18.03;;;;;;;;;;5078642;28;20441;-61
2023/03/03 05:35:07;;;;;;;34.17;17.13;;;;;;;;;;5078729;28;20452;-61
2023/03/03 05:37:38;;;;;;;28.87;16.30;;;;;;;;;;5078313;28;20444;-61
2023/03/03 05:40:09;;;;;;;31.30;17.37;;;;;;;;;;5078421;28;20484;-61
2023/03/03 05:42:37;;;;;;;29.77;17.53;;;;;;;;;;5077904;28;21098;-61
2023/03/03 05:45:06;;;;;;;29.73;17.17;;;;;;;;;;5078284;28;20482;-61
2023/03/03 05:47:34;;;;;;;32.50;18.30;;;;;;;;;;5078241;28;20449;-61
2023/03/03 05:50:02;;;;;;;33.93;18.57;;;;;;;;;;5078408;28;20479;-61
2023/03/03 05:52:30;;;;;;;32.17;17.20;;;;;;;;;;5078270;28;20519;-61
2023/03/03 05:54:59;;;;;;;30.70;18.17;;;;;;;;;;5078498;28;20472;-61
2023/03/03 05:57:27;;;;;;;32.13;17.27;;;;;;;;;;5077799;28;20472;-61
2023/03/03 05:59:55;;;;;;;35.23;18.67;;;;;;;;;;5078145;28;20469;-61
2023/03/03 06:02:24;;;;;;;32.13;17.77;;;;;;;;;;5078064;28;20487;-61
2023/03/03 06:04:52;;;;;;;30.57;17.97;;;;;;;;;;5077856;28;20469;-61
2023/03/03 06:07:21;;;;;;;36.70;17.97;;;;;;;;;;5077984;28;20508;-61
2023/03/03 06:09:48;;;;;;;34.80;17.63;;;;;;;;;;5078008;28;20556;-61
2023/03/03 06:12:18;;;;;;;30.80;17.37;;;;;;;;;;5077588;28;20222;-60
2023/03/03 06:14:46;;;;;;;31.37;18.30;;;;;;;;;;5077678;28;20566;-61
2023/03/03 06:17:14;;;;;;;31.27;18.07;;;;;;;;;;5077746;28;20447;-61
2023/03/03 06:19:42;;;;;;;34.07;17.80;;;;;;;;;;5077813;28;20468;-61
2023/03/03 06:22:10;;;;;;;32.43;17.70;;;;;;;;;;5077757;28;20479;-61
2023/03/03 06:24:38;;;;;;;30.97;17.53;;;;;;;;;;5077958;28;20446;-61
2023/03/03 06:27:06;;;;;;;35.07;18.37;;;;;;;;;;5077093;28;20960;-61
2023/03/03 06:29:35;;;;;;;31.50;17.60;;;;;;;;;;5087364;28;20464;-61
2023/03/03 06:32:03;;;;;;;31.70;17.67;;;;;;;;;;5081426;28;20440;-61
2023/03/03 06:34:32;;;;;;;32.57;17.60;;;;;;;;;;5076901;28;20447;-61
2023/03/03 06:36:59;;;;;;;28.90;17.03;;;;;;;;;;5077076;28;20484;-61
2023/03/03 06:39:28;;;;;;;30.17;17.37;;;;;;;;;;5077297;28;20456;-61
2023/03/03 06:41:56;;;;;;;31.93;17.47;;;;;;;;;;5077410;28;20511;-61
2023/03/03 06:44:23;;;;;;;35.93;16.70;;;;;;;;;;5077303;28;20932;-61
2023/03/03 06:46:57;;;;;;;27.47;16.63;;;;;;;;;;5077634;28;20448;-61
2023/03/03 06:49:25;;;;;;;36.67;18.20;;;;;;;;;;5076832;28;20465;-60
2023/03/03 06:51:56;;;;;;;31.93;18.30;;;;;;;;;;5077363;28;20436;-61
2023/03/03 06:54:28;;;;;;;30.67;17.90;;;;;;;;;;5077196;28;20547;-60
2023/03/03 06:56:59;;;;;;;33.77;18.13;;;;;;;;;;5074858;28;20433;-61
2023/03/03 06:59:27;;;;;;;30.53;17.27;;;;;;;;;;5078308;28;20456;-61
2023/03/03 07:01:57;;;;;;;33.70;18.00;;;;;;;;;;5076924;28;20476;-61
2023/03/03 07:04:28;;;;;;;38.77;18.13;;;;;;;;;;5077034;28;20810;-60
2023/03/03 07:06:57;;;;;;;32.50;17.73;;;;;;;;;;5077160;28;20478;-60
2023/03/03 07:09:26;;;;;;;32.63;18.30;;;;;;;;;;5077368;28;20492;-60
2023/03/03 07:11:56;;;;;;;32.43;18.57;;;;;;;;;;5076894;28;20472;-61
2023/03/03 07:14:26;;;;;;;35.80;18.80;;;;;;;;;;5077191;28;20468;-60
2023/03/03 07:17:00;;;;;;;37.50;19.00;;;;;;;;;;5077232;28;20445;-60
2023/03/03 07:19:31;;;;;;;37.47;19.50;;;;;;;;;;5077244;28;20517;-61
2023/03/03 07:22:00;;;;;;;33.63;17.77;;;;;;;;;;5076900;28;20520;-60
2023/03/03 07:24:29;;;;;;;35.43;18.77;;;;;;;;;;5080431;28;20440;-60
2023/03/03 07:27:00;;;;;;;32.57;19.33;;;;;;;;;;5097162;28;20443;-59
2023/03/03 07:29:30;;;;;;;36.13;18.50;;;;;;;;;;5097250;28;20486;-60
2023/03/03 07:32:01;;;;;;;31.63;17.67;;;;;;;;;;5097019;28;20451;-61
2023/03/03 07:34:31;;;;;;;37.93;19.17;;;;;;;;;;5097007;28;20448;-60
2023/03/03 07:37:03;;;;;;;29.07;17.13;;;;;;;;;;5097283;28;20535;-60
2023/03/03 07:39:34;;;;;;;35.90;19.20;;;;;;;;;;5091617;28;20462;-60
2023/03/03 07:42:18;;;;;;;35.27;18.63;;;;;;;;;;5076953;28;20501;-61
2023/03/03 07:44:47;;;;;;;32.33;18.93;;;;;;;;;;5086324;28;20439;-60
2023/03/03 07:47:19;;;;;;;34.43;19.13;;;;;;;;;;5100572;28;20443;-60
2023/03/03 07:49:48;;;;;;;29.97;17.47;;;;;;;;;;5100279;28;20463;-61
2023/03/03 07:52:20;;;;;;;37.97;18.87;;;;;;;;;;5100333;28;20493;-60
2023/03/03 07:54:48;;;;;;;33.53;18.90;;;;;;;;;;5100799;28;20471;-60
2023/03/03 07:57:20;;;;;;;36.30;18.73;;;;;;;;;;5100350;28;20455;-60
2023/03/03 07:59:49;;;;;;;39.13;21.40;;;;;;;;;;5100648;28;20463;-60
2023/03/03 08:02:30;;;;;;;34.57;19.07;;;;;;;;;;5100235;28;20475;-61
2023/03/03 08:04:57;;;;;;;35.27;18.60;;;;;;;;;;5084601;28;20436;-61
2023/03/03 08:07:26;;;;;;;33.77;18.70;;;;;;;;;;5080233;28;20484;-61
2023/03/03 08:09:57;;;;;;;37.87;19.17;;;;;;;;;;5079872;28;20979;-60
2023/03/03 08:12:31;;;;;;;30.87;18.30;;;;;;;;;;5079910;28;20779;-61
2023/03/03 08:15:11;;;;;;;31.30;19.20;;;;;;;;;;5079949;28;20479;-61
2023/03/03 08:17:42;;;;;;;33.93;19.27;;;;;;;;;;5080230;28;20455;-61
2023/03/03 08:20:25;;;;;;;35.07;17.93;;;;;;;;;;5079982;28;20465;-61
2023/03/03 08:22:55;;;;;;;37.40;20.10;;;;;;;;;;5079754;28;20575;-61
2023/03/03 08:25:23;;;;;;;38.00;20.67;;;;;;;;;;5079898;28;20463;-61
2023/03/03 08:27:57;;;;;;;38.13;23.47;;;;;;;;;;5079622;28;20532;-61
2023/03/03 08:30:25;;;;;;;34.87;19.33;;;;;;;;;;5079674;28;20460;-61
2023/03/03 08:32:54;;;;;;;34.67;19.33;;;;;;;;;;5079699;28;20476;-61
2023/03/03 08:35:22;;;;;;;33.53;19.33;;;;;;;;;;5079831;28;20440;-61
2023/03/03 08:37:51;;;;;;;34.73;20.67;;;;;;;;;;5080113;28;20453;-61
2023/03/03 08:40:19;;;;;;;35.27;18.80;;;;;;;;;;5079360;28;20460;-61
2023/03/03 08:42:47;;;;;;;34.80;18.50;;;;;;;;;;5079189;28;21064;-61
2023/03/03 08:45:15;;;;;;;34.00;18.90;;;;;;;;;;5079500;28;20445;-61
2023/03/03 08:47:43;;;;;;;33.17;19.63;;;;;;;;;;5079489;28;20444;-61
2023/03/03 08:50:14;;;;;;;36.43;20.20;;;;;;;;;;5079389;28;20552;-61
2023/03/03 08:52:42;;;;;;;34.23;19.10;;;;;;;;;;5079548;28;20447;-61
2023/03/03 08:55:10;;;;;;;37.23;20.07;;;;;;;;;;5079034;28;20448;-61
2023/03/03 08:57:38;;;;;;;31.10;19.10;;;;;;;;;;5079200;28;20451;-61
2023/03/03 09:00:07;;;;;;;34.40;18.63;;;;;;;;;;5078943;28;20970;-61
2023/03/03 09:02:36;;;;;;;33.53;18.87;;;;;;;;;;5078932;28;20470;-61
2023/03/03 09:05:04;;;;;;;34.27;18.40;;;;;;;;;;5078883;28;20779;-61
2023/03/03 09:07:34;;;;;;;35.43;20.20;;;;;;;;;;5078966;28;20713;-61
2023/03/03 09:10:02;;;;;;;33.90;18.10;;;;;;;;;;5078813;28;20226;-61
2023/03/03 09:12:33;;;;;;;29.97;16.73;;;;;;;;;;5079132;28;20327;-61
2023/03/03 09:15:08;;;;;;;33.93;17.80;;;;;;;;;;5079048;28;20217;-61
2023/03/03 09:17:37;;;;;;;29.30;18.33;;;;;;;;;;5078969;28;20208;-61
2023/03/03 09:20:17;;;;;;;33.60;17.83;;;;;;;;;;5078878;28;20262;-61
2023/03/03 09:22:46;;;;;;;33.07;17.93;;;;;;;;;;5078816;28;20217;-61
2023/03/03 09:25:20;;;;;;;30.73;17.33;;;;;;;;;;5078910;28;20240;-61
2023/03/03 09:27:48;;;;;;;36.73;17.93;;;;;;;;;;5078499;28;20228;-61
2023/03/03 09:30:28;;;;;;;29.63;18.13;;;;;;;;;;5078444;28;20261;-61
2023/03/03 09:32:57;;;;;;;29.30;16.73;;;;;;;;;;5078195;28;20202;-61
2023/03/03 09:35:36;;;;;;;33.87;18.63;;;;;;;;;;5078701;28;20210;-61
2023/03/03 09:38:12;;;;;;;29.40;17.20;;;;;;;;;;5078568;28;20202;-61
2023/03/03 09:40:51;;;;;;;33.30;16.80;;;;;;;;;;5077910;28;20561;-61
2023/03/03 09:43:22;;;;;;;33.33;17.93;;;;;;;;;;5078291;28;20591;-61
2023/03/03 09:45:55;;;;;;;26.53;17.47;;;;;;;;;;5078285;28;20281;-61
2023/03/03 09:48:29;;;;;;;28.13;17.53;;;;;;;;;;5078586;28;20202;-61
2023/03/03 09:51:06;;;;;;;28.70;17.07;;;;;;;;;;5078439;28;20229;-61
2023/03/03 09:53:41;;;;;;;32.83;17.77;;;;;;;;;;5078345;28;20206;-61
2023/03/03 09:56:12;;;;;;;31.40;17.47;;;;;;;;;;5078134;28;20210;-61
2023/03/03 09:58:45;;;;;;;31.17;17.43;;;;;;;;;;5077943;28;20664;-61
2023/03/03 10:01:24;;;;;;;37.47;19.13;;;;;;;;;;5078074;28;20272;-61
2023/03/03 10:03:57;;;;;;;28.13;16.70;;;;;;;;;;5077836;28;20248;-61
2023/03/03 10:06:28;;;;;;;36.10;19.57;;;;;;;;;;5078087;28;20206;-63
2023/03/03 10:09:03;;;;;;;31.67;18.20;;;;;;;;;;5077329;28;20202;-61
2023/03/03 10:11:35;;;;;;;33.87;18.43;;;;;;;;;;5077854;28;20206;-61
2023/03/03 10:14:18;;;;;;;32.40;17.03;;;;;;;;;;5077815;28;20245;-61
2023/03/03 10:17:04;;;;;;;30.77;17.77;;;;;;;;;;5077727;28;20228;-61
2023/03/03 10:19:36;;;;;;;28.10;16.73;;;;;;;;;;5077794;28;20226;-61
2023/03/03 10:22:13;;;;;;;33.03;17.77;;;;;;;;;;5078033;28;20237;-61
2023/03/03 10:24:46;;;;;;;31.37;19.10;;;;;;;;;;5078030;28;20232;-61
2023/03/03 10:27:24;;;;;;;29.80;17.33;;;;;;;;;;5077474;28;20707;-61
2023/03/03 10:29:59;;;;;;;30.20;17.63;;;;;;;;;;5077513;28;20229;-61
2023/03/03 10:32:34;;;;;;;30.73;18.33;;;;;;;;;;5077498;28;20205;-61
2023/03/03 10:35:17;;;;;;;32.53;18.13;;;;;;;;;;5077954;28;20205;-61
2023/03/03 10:37:48;;;;;;;32.10;17.47;;;;;;;;;;5064971;28;20692;-61
2023/03/03 10:40:21;;;;;;;32.47;18.03;;;;;;;;;;5077709;28;20233;-61
2023/03/03 10:43:06;;;;;;;30.10;17.03;;;;;;;;;;5064580;28;20263;-61
2023/03/03 10:45:45;;;;;;;33.47;18.90;;;;;;;;;;5077934;28;20257;-62
2023/03/03 10:48:24;;;;;;;32.63;18.23;;;;;;;;;;5077634;28;20205;-62
2023/03/03 10:50:54;;;;;;;29.70;17.87;;;;;;;;;;5077328;28;20730;-61
2023/03/03 10:53:27;;;;;;;33.07;18.37;;;;;;;;;;5077798;28;20238;-61
2023/03/03 10:56:08;;;;;;;34.93;18.67;;;;;;;;;;5077553;28;20206;-62
2023/03/03 10:58:47;;;;;;;31.37;17.13;;;;;;;;;;5077414;28;20250;-61
2023/03/03 11:01:21;;;;;;;31.47;17.40;;;;;;;;;;5077201;28;20308;-61
2023/03/03 11:04:06;;;;;;;31.30;16.67;;;;;;;;;;5077232;28;20684;-61
2023/03/03 11:06:38;;;;;;;31.47;17.20;;;;;;;;;;5076360;28;20218;-62
2023/03/03 11:09:12;;;;;;;33.10;17.67;;;;;;;;;;5077247;28;20210;-61
2023/03/03 11:11:45;;;;;;;30.53;16.30;;;;;;;;;;5077155;28;20210;-61
2023/03/03 11:14:17;;;;;;;30.67;18.47;;;;;;;;;;5077200;28;20202;-61
2023/03/03 11:16:50;;;;;;;33.63;18.83;;;;;;;;;;5077348;28;20216;-61
2023/03/03 11:19:25;;;;;;;32.53;17.37;;;;;;;;;;5079013;28;20226;-62
2023/03/03 11:21:57;;;;;;;33.37;18.43;;;;;;;;;;5085497;28;20203;-62
2023/03/03 11:24:34;;;;;;;30.50;18.27;;;;;;;;;;5087282;28;20700;-62
2023/03/03 11:27:26;;;;;;;35.53;18.03;;;;;;;;;;5085980;28;20222;-62
2023/03/03 11:30:03;;;;;;;32.57;17.07;;;;;;;;;;5089842;28;20289;-62
2023/03/03 11:32:38;;;;;;;33.30;19.30;;;;;;;;;;5088571;28;20281;-62
2023/03/03 11:35:17;;;;;;;32.30;17.60;;;;;;;;;;5087151;28;20226;-62
2023/03/03 11:37:46;;;;;;;35.73;18.70;;;;;;;;;;5087587;28;20312;-62
2023/03/03 11:40:17;;;;;;;32.47;18.13;;;;;;;;;;5090327;28;20222;-59
2023/03/03 11:42:53;;;;;;;29.33;17.83;;;;;;;;;;5088372;28;20262;-60
2023/03/03 11:45:25;;;;;;;36.40;17.90;;;;;;;;;;5085680;28;20209;-60
2023/03/03 11:47:57;;;;;;;29.40;18.27;;;;;;;;;;5088142;28;20206;-61
2023/03/03 11:50:31;;;;;;;34.90;19.40;;;;;;;;;;5084617;28;20222;-60
2023/03/03 11:53:05;;;;;;;28.97;17.97;;;;;;;;;;5078730;28;20275;-61
2023/03/03 11:55:36;;;;;;;33.53;18.17;;;;;;;;;;5083027;28;20201;-62
2023/03/03 11:58:11;;;;;;;26.77;16.40;;;;;;;;;;5100875;28;20205;-62
2023/03/03 12:00:41;;;;;;;26.37;16.83;;;;;;;;;;5100602;28;20263;-62
2023/03/03 12:03:14;;;;;;;28.60;17.87;;;;;;;;;;5099740;28;20676;-63
2023/03/03 12:05:46;;;;;;;29.13;18.03;;;;;;;;;;5080392;28;20232;-62
2023/03/03 12:08:21;;;;;;;33.60;18.97;;;;;;;;;;5079715;28;20244;-62
2023/03/03 12:10:53;;;;;;;30.60;16.20;;;;;;;;;;5079816;28;20225;-61
2023/03/03 12:13:25;;;;;;;34.97;18.70;;;;;;;;;;5077661;28;20199;-61
2023/03/03 12:15:55;;;;;;;26.80;15.97;;;;;;;;;;5080189;28;20285;-61
2023/03/03 12:18:32;;;;;;;32.07;17.17;;;;;;;;;;5080539;28;20255;-61
2023/03/03 12:21:07;;;;;;;28.70;17.20;;;;;;;;;;5090456;28;20565;-62
2023/03/03 12:23:47;;;;;;;32.90;17.53;;;;;;;;;;5089395;28;20202;-62
2023/03/03 12:26:16;;;;;;;28.80;17.07;;;;;;;;;;5088251;28;20222;-61
2023/03/03 12:28:50;;;;;;;110.50;60.27;;;;;;;;;;5089940;28;20292;-60
2023/03/03 12:31:25;;;;;;;47.57;23.53;;;;;;;;;;5086672;28;20306;-61
2023/03/03 12:33:55;;;;;;;31.00;17.43;;;;;;;;;;5084884;28;20202;-61
2023/03/03 12:36:38;;;;;;;30.80;17.97;;;;;;;;;;5088799;28;20609;-61
2023/03/03 12:39:08;;;;;;;28.00;17.40;;;;;;;;;;5085977;28;20217;-61
2023/03/03 12:41:40;;;;;;;28.73;17.40;;;;;;;;;;5085259;28;20238;-61
2023/03/03 12:44:14;;;;;;;36.17;18.33;;;;;;;;;;5087427;28;20205;-61
2023/03/03 12:46:45;;;;;;;30.93;17.57;;;;;;;;;;5086991;28;20228;-61
2023/03/03 12:49:13;;;;;;;31.83;18.80;;;;;;;;;;5087327;28;20225;-61
2023/03/03 12:51:44;;;;;;;36.33;18.53;;;;;;;;;;5088300;28;20213;-60
2023/03/03 12:54:30;;;;;;;30.03;17.50;;;;;;;;;;5089060;28;20201;-60
2023/03/03 12:57:08;;;;;;;29.80;17.67;;;;;;;;;;5086831;28;20210;-60
2023/03/03 12:59:44;;;;;;;30.97;18.80;;;;;;;;;;5085061;28;20254;-61
2023/03/03 13:02:39;;;;;;;32.17;18.17;;;;;;;;;;5086585;28;20579;-60
2023/03/03 13:05:16;;;;;;;27.10;16.97;;;;;;;;;;5088718;28;20224;-60
2023/03/03 13:07:47;;;;;;;31.00;18.10;;;;;;;;;;5098926;28;20773;-61
2023/03/03 13:10:18;;;;;;;29.53;18.23;;;;;;;;;;5098755;28;20225;-61
2023/03/03 13:12:51;;;;;;;28.13;18.50;;;;;;;;;;5098361;28;20679;-61
2023/03/03 13:15:22;;;;;;;30.87;17.80;;;;;;;;;;5099236;28;20212;-61
2023/03/03 13:18:06;;;;;;;28.07;17.73;;;;;;;;;;5098755;28;20216;-61
2023/03/03 13:20:38;;;;;;;29.80;16.33;;;;;;;;;;5098279;28;20708;-61
2023/03/03 13:23:08;;;;;;;26.33;16.70;;;;;;;;;;5098933;28;20240;-61
2023/03/03 13:25:50;;;;;;;28.60;17.10;;;;;;;;;;5098909;28;20261;-61
2023/03/03 13:28:21;;;;;;;32.10;18.53;;;;;;;;;;5099129;28;20251;-61
2023/03/03 13:30:53;;;;;;;32.33;18.10;;;;;;;;;;5098782;28;20221;-61
2023/03/03 13:33:24;;;;;;;30.43;18.20;;;;;;;;;;5099077;28;20209;-61
2023/03/03 13:35:54;;;;;;;29.20;17.77;;;;;;;;;;5098950;28;20206;-61
2023/03/03 13:38:24;;;;;;;29.73;17.93;;;;;;;;;;5098929;28;20244;-61
2023/03/03 13:40:56;;;;;;;33.63;19.03;;;;;;;;;;5081445;28;20218;-61
2023/03/03 13:43:27;;;;;;;31.33;18.37;;;;;;;;;;5078548;28;20206;-61
2023/03/03 13:46:04;;;;;;;32.53;19.10;;;;;;;;;;5078051;28;20226;-62
2023/03/03 13:48:38;;;;;;;29.70;17.23;;;;;;;;;;5078210;28;20201;-61
2023/03/03 13:51:10;;;;;;;32.97;19.07;;;;;;;;;;5078273;28;20222;-61
2023/03/03 13:53:43;;;;;;;29.87;18.57;;;;;;;;;;5078366;28;20214;-61
2023/03/03 13:56:18;;;;;;;30.67;17.97;;;;;;;;;;5078134;28;20270;-61
2023/03/03 13:58:48;;;;;;;34.77;19.23;;;;;;;;;;5078238;28;20221;-61
2023/03/03 14:01:22;;;;;;;40.13;20.00;;;;;;;;;;5077916;28;20250;-61
2023/03/03 14:03:56;;;;;;;34.13;19.40;;;;;;;;;;5075488;28;20193;-61
2023/03/03 14:06:28;;;;;;;31.93;18.87;;;;;;;;;;5077523;28;20225;-61
2023/03/03 14:09:00;;;;;;;28.90;18.53;;;;;;;;;;5075540;28;20282;-61
2023/03/03 14:11:35;;;;;;;32.83;20.03;;;;;;;;;;5070328;28;20285;-62
2023/03/03 14:14:08;;;;;;;34.43;18.17;;;;;;;;;;5077616;28;20210;-62
2023/03/03 14:16:41;;;;;;;30.70;17.93;;;;;;;;;;5077482;28;20198;-62
2023/03/03 14:19:12;;;;;;;30.80;17.67;;;;;;;;;;5073406;28;20712;-61
2023/03/03 14:21:43;;;;;;;29.90;17.30;;;;;;;;;;5060525;28;20238;-61
2023/03/03 14:24:15;;;;;;;34.07;18.13;;;;;;;;;;5058111;28;20300;-61
2023/03/03 14:26:48;;;;;;;27.27;16.20;;;;;;;;;;5056137;28;20226;-61
2023/03/03 14:29:21;;;;;;;27.37;17.07;;;;;;;;;;5072136;28;20218;-61
2023/03/03 14:31:50;;;;;;;26.83;15.83;;;;;;;;;;5062318;28;20203;-61
2023/03/03 14:34:35;;;;;;;32.03;18.77;;;;;;;;;;5064606;28;20248;-61
2023/03/03 14:37:21;;;;;;;30.23;17.63;;;;;;;;;;5077302;28;20222;-61
2023/03/03 14:39:52;;;;;;;32.10;17.57;;;;;;;;;;5074566;28;20217;-61